sensor_id;sensor_type;location;lat;lon;timestamp;P1;durP1;ratioP1;P2;durP2;ratioP2
54372;SDS011;69157;53.094;10.016;2024-02-21T00:01:23;17.20;;;5.45;;
54372;SDS011;69157;53.094;10.016;2024-02-21T00:03:49;13.32;;;5.38;;
54372;SDS011;69157;53.094;10.016;2024-02-21T00:06:15;16.50;;;4.65;;
54372;SDS011;69157;53.094;10.016;2024-02-21T00:08:41;10.88;;;4.85;;
54372;SDS011;69157;53.094;10.016;2024-02-21T00:11:07;11.98;;;5.32;;
54372;SDS011;69157;53.094;10.016;2024-02-21T00:13:35;15.02;;;5.00;;
54372;SDS011;69157;53.094;10.016;2024-02-21T00:16:02;10.15;;;4.82;;
54372;SDS011;69157;53.094;10.016;2024-02-21T00:18:28;12.73;;;5.38;;
54372;SDS011;69157;53.094;10.016;2024-02-21T00:20:55;11.95;;;5.28;;
54372;SDS011;69157;53.094;10.016;2024-02-21T00:23:21;11.85;;;5.25;;
54372;SDS011;69157;53.094;10.016;2024-02-21T00:25:47;11.57;;;4.65;;
54372;SDS011;69157;53.094;10.016;2024-02-21T00:28:13;13.07;;;5.35;;
54372;SDS011;69157;53.094;10.016;2024-02-21T00:30:39;14.82;;;4.70;;
54372;SDS011;69157;53.094;10.016;2024-02-21T00:33:05;10.00;;;4.55;;
54372;SDS011;69157;53.094;10.016;2024-02-21T00:35:32;16.83;;;6.32;;
54372;SDS011;69157;53.094;10.016;2024-02-21T00:37:59;13.60;;;5.10;;
54372;SDS011;69157;53.094;10.016;2024-02-21T00:40:25;13.75;;;5.20;;
54372;SDS011;69157;53.094;10.016;2024-02-21T00:42:51;14.13;;;5.40;;
54372;SDS011;69157;53.094;10.016;2024-02-21T00:45:17;11.25;;;5.22;;
54372;SDS011;69157;53.094;10.016;2024-02-21T00:47:43;13.02;;;5.43;;
54372;SDS011;69157;53.094;10.016;2024-02-21T00:50:09;12.10;;;4.97;;
54372;SDS011;69157;53.094;10.016;2024-02-21T00:52:35;16.90;;;6.10;;
54372;SDS011;69157;53.094;10.016;2024-02-21T00:55:03;14.75;;;5.28;;
54372;SDS011;69157;53.094;10.016;2024-02-21T00:57:29;22.05;;;6.15;;
54372;SDS011;69157;53.094;10.016;2024-02-21T00:59:57;12.63;;;5.30;;
54372;SDS011;69157;53.094;10.016;2024-02-21T01:02:22;11.65;;;5.22;;
54372;SDS011;69157;53.094;10.016;2024-02-21T01:04:48;13.18;;;5.22;;
54372;SDS011;69157;53.094;10.016;2024-02-21T01:07:14;11.98;;;5.10;;
54372;SDS011;69157;53.094;10.016;2024-02-21T01:09:40;15.45;;;4.88;;
54372;SDS011;69157;53.094;10.016;2024-02-21T01:12:06;19.67;;;5.10;;
54372;SDS011;69157;53.094;10.016;2024-02-21T01:14:32;13.25;;;5.13;;
54372;SDS011;69157;53.094;10.016;2024-02-21T01:16:58;18.48;;;5.88;;
54372;SDS011;69157;53.094;10.016;2024-02-21T01:19:26;16.05;;;5.88;;
54372;SDS011;69157;53.094;10.016;2024-02-21T01:21:53;16.05;;;5.75;;
54372;SDS011;69157;53.094;10.016;2024-02-21T01:24:19;12.00;;;5.70;;
54372;SDS011;69157;53.094;10.016;2024-02-21T01:26:46;12.77;;;5.10;;
54372;SDS011;69157;53.094;10.016;2024-02-21T01:29:12;9.43;;;5.00;;
54372;SDS011;69157;53.094;10.016;2024-02-21T01:31:38;17.02;;;5.35;;
54372;SDS011;69157;53.094;10.016;2024-02-21T01:34:04;15.48;;;5.43;;
54372;SDS011;69157;53.094;10.016;2024-02-21T01:36:30;10.45;;;5.45;;
54372;SDS011;69157;53.094;10.016;2024-02-21T01:38:56;10.85;;;5.10;;
54372;SDS011;69157;53.094;10.016;2024-02-21T01:41:22;15.93;;;5.47;;
54372;SDS011;69157;53.094;10.016;2024-02-21T01:43:49;12.70;;;6.13;;
54372;SDS011;69157;53.094;10.016;2024-02-21T01:46:15;10.95;;;4.90;;
54372;SDS011;69157;53.094;10.016;2024-02-21T01:48:41;20.08;;;6.97;;
54372;SDS011;69157;53.094;10.016;2024-02-21T01:51:07;15.27;;;5.78;;
54372;SDS011;69157;53.094;10.016;2024-02-21T01:53:34;17.10;;;5.55;;
54372;SDS011;69157;53.094;10.016;2024-02-21T01:56:02;15.45;;;6.75;;
54372;SDS011;69157;53.094;10.016;2024-02-21T01:58:30;17.73;;;6.05;;
54372;SDS011;69157;53.094;10.016;2024-02-21T02:00:56;13.65;;;6.30;;
54372;SDS011;69157;53.094;10.016;2024-02-21T02:03:23;12.70;;;5.50;;
54372;SDS011;69157;53.094;10.016;2024-02-21T02:05:51;16.98;;;7.30;;
54372;SDS011;69157;53.094;10.016;2024-02-21T02:08:17;14.85;;;5.50;;
54372;SDS011;69157;53.094;10.016;2024-02-21T02:10:44;13.27;;;5.47;;
54372;SDS011;69157;53.094;10.016;2024-02-21T02:13:10;17.67;;;6.72;;
54372;SDS011;69157;53.094;10.016;2024-02-21T02:15:49;12.63;;;6.05;;
54372;SDS011;69157;53.094;10.016;2024-02-21T02:18:16;17.90;;;6.28;;
54372;SDS011;69157;53.094;10.016;2024-02-21T02:20:43;14.75;;;6.63;;
54372;SDS011;69157;53.094;10.016;2024-02-21T02:23:11;12.77;;;5.40;;
54372;SDS011;69157;53.094;10.016;2024-02-21T02:25:37;16.42;;;6.50;;
54372;SDS011;69157;53.094;10.016;2024-02-21T02:28:07;16.42;;;6.45;;
54372;SDS011;69157;53.094;10.016;2024-02-21T02:30:39;10.10;;;4.95;;
54372;SDS011;69157;53.094;10.016;2024-02-21T02:33:05;15.40;;;7.07;;
54372;SDS011;69157;53.094;10.016;2024-02-21T02:35:31;17.27;;;6.75;;
54372;SDS011;69157;53.094;10.016;2024-02-21T02:38:01;17.42;;;6.13;;
54372;SDS011;69157;53.094;10.016;2024-02-21T02:40:27;17.27;;;5.93;;
54372;SDS011;69157;53.094;10.016;2024-02-21T02:42:55;20.52;;;5.50;;
54372;SDS011;69157;53.094;10.016;2024-02-21T02:45:22;20.50;;;6.63;;
54372;SDS011;69157;53.094;10.016;2024-02-21T02:47:51;17.77;;;6.38;;
54372;SDS011;69157;53.094;10.016;2024-02-21T02:50:27;20.45;;;7.53;;
54372;SDS011;69157;53.094;10.016;2024-02-21T02:52:54;15.20;;;6.15;;
54372;SDS011;69157;53.094;10.016;2024-02-21T02:55:20;15.65;;;5.70;;
54372;SDS011;69157;53.094;10.016;2024-02-21T02:57:46;13.18;;;5.85;;
54372;SDS011;69157;53.094;10.016;2024-02-21T03:00:14;18.27;;;5.07;;
54372;SDS011;69157;53.094;10.016;2024-02-21T03:02:42;17.50;;;6.43;;
54372;SDS011;69157;53.094;10.016;2024-02-21T03:05:12;14.40;;;6.85;;
54372;SDS011;69157;53.094;10.016;2024-02-21T03:07:39;14.75;;;5.78;;
54372;SDS011;69157;53.094;10.016;2024-02-21T03:10:05;13.07;;;5.15;;
54372;SDS011;69157;53.094;10.016;2024-02-21T03:12:31;16.80;;;6.20;;
54372;SDS011;69157;53.094;10.016;2024-02-21T03:14:57;12.65;;;6.22;;
54372;SDS011;69157;53.094;10.016;2024-02-21T03:17:24;14.70;;;6.57;;
54372;SDS011;69157;53.094;10.016;2024-02-21T03:19:52;10.80;;;4.75;;
54372;SDS011;69157;53.094;10.016;2024-02-21T03:22:19;26.23;;;6.40;;
54372;SDS011;69157;53.094;10.016;2024-02-21T03:24:46;16.15;;;5.60;;
54372;SDS011;69157;53.094;10.016;2024-02-21T03:27:13;10.57;;;5.95;;
54372;SDS011;69157;53.094;10.016;2024-02-21T03:29:40;13.50;;;5.47;;
54372;SDS011;69157;53.094;10.016;2024-02-21T03:32:06;14.35;;;5.68;;
54372;SDS011;69157;53.094;10.016;2024-02-21T03:34:32;16.67;;;6.60;;
54372;SDS011;69157;53.094;10.016;2024-02-21T03:36:58;11.43;;;4.70;;
54372;SDS011;69157;53.094;10.016;2024-02-21T03:39:24;15.63;;;5.65;;
54372;SDS011;69157;53.094;10.016;2024-02-21T03:41:50;14.00;;;5.70;;
54372;SDS011;69157;53.094;10.016;2024-02-21T03:44:16;16.05;;;5.20;;
54372;SDS011;69157;53.094;10.016;2024-02-21T03:46:42;17.52;;;6.57;;
54372;SDS011;69157;53.094;10.016;2024-02-21T03:49:08;14.93;;;5.55;;
54372;SDS011;69157;53.094;10.016;2024-02-21T03:51:34;19.27;;;6.60;;
54372;SDS011;69157;53.094;10.016;2024-02-21T03:54:00;12.10;;;6.20;;
54372;SDS011;69157;53.094;10.016;2024-02-21T03:56:27;16.35;;;5.97;;
54372;SDS011;69157;53.094;10.016;2024-02-21T03:58:53;15.35;;;5.45;;
54372;SDS011;69157;53.094;10.016;2024-02-21T04:01:20;12.70;;;5.85;;
54372;SDS011;69157;53.094;10.016;2024-02-21T04:03:47;13.68;;;6.38;;
54372;SDS011;69157;53.094;10.016;2024-02-21T04:06:13;12.85;;;6.15;;
54372;SDS011;69157;53.094;10.016;2024-02-21T04:08:39;21.77;;;5.97;;
54372;SDS011;69157;53.094;10.016;2024-02-21T04:11:05;11.45;;;4.75;;
54372;SDS011;69157;53.094;10.016;2024-02-21T04:13:31;14.38;;;6.47;;
54372;SDS011;69157;53.094;10.016;2024-02-21T04:15:57;14.57;;;5.68;;
54372;SDS011;69157;53.094;10.016;2024-02-21T04:18:23;16.17;;;5.47;;
54372;SDS011;69157;53.094;10.016;2024-02-21T04:20:51;12.70;;;5.75;;
54372;SDS011;69157;53.094;10.016;2024-02-21T04:23:17;18.25;;;4.95;;
54372;SDS011;69157;53.094;10.016;2024-02-21T04:25:43;13.40;;;5.40;;
54372;SDS011;69157;53.094;10.016;2024-02-21T04:28:10;14.65;;;5.75;;
54372;SDS011;69157;53.094;10.016;2024-02-21T04:30:36;13.73;;;6.13;;
54372;SDS011;69157;53.094;10.016;2024-02-21T04:33:02;16.65;;;5.35;;
54372;SDS011;69157;53.094;10.016;2024-02-21T04:35:28;15.18;;;6.13;;
54372;SDS011;69157;53.094;10.016;2024-02-21T04:37:54;9.93;;;4.43;;
54372;SDS011;69157;53.094;10.016;2024-02-21T04:40:20;11.75;;;5.38;;
54372;SDS011;69157;53.094;10.016;2024-02-21T04:42:46;15.38;;;5.40;;
54372;SDS011;69157;53.094;10.016;2024-02-21T04:45:13;13.07;;;5.35;;
54372;SDS011;69157;53.094;10.016;2024-02-21T04:47:39;20.17;;;6.07;;
54372;SDS011;69157;53.094;10.016;2024-02-21T04:50:05;13.02;;;6.10;;
54372;SDS011;69157;53.094;10.016;2024-02-21T04:52:31;11.13;;;5.60;;
54372;SDS011;69157;53.094;10.016;2024-02-21T04:54:57;15.05;;;5.18;;
54372;SDS011;69157;53.094;10.016;2024-02-21T04:57:23;16.98;;;5.72;;
54372;SDS011;69157;53.094;10.016;2024-02-21T04:59:50;13.50;;;5.32;;
54372;SDS011;69157;53.094;10.016;2024-02-21T05:02:16;14.52;;;5.15;;
54372;SDS011;69157;53.094;10.016;2024-02-21T05:04:45;12.18;;;5.82;;
54372;SDS011;69157;53.094;10.016;2024-02-21T05:07:10;13.88;;;5.57;;
54372;SDS011;69157;53.094;10.016;2024-02-21T05:09:37;11.10;;;5.13;;
54372;SDS011;69157;53.094;10.016;2024-02-21T05:12:03;15.80;;;5.60;;
54372;SDS011;69157;53.094;10.016;2024-02-21T05:14:29;12.85;;;5.32;;
54372;SDS011;69157;53.094;10.016;2024-02-21T05:16:57;19.80;;;6.20;;
54372;SDS011;69157;53.094;10.016;2024-02-21T05:19:24;15.85;;;5.93;;
54372;SDS011;69157;53.094;10.016;2024-02-21T05:21:51;10.07;;;5.07;;
54372;SDS011;69157;53.094;10.016;2024-02-21T05:24:18;17.40;;;5.60;;
54372;SDS011;69157;53.094;10.016;2024-02-21T05:26:44;11.02;;;5.28;;
54372;SDS011;69157;53.094;10.016;2024-02-21T05:29:10;13.15;;;5.03;;
54372;SDS011;69157;53.094;10.016;2024-02-21T05:32:09;14.18;;;5.55;;
54372;SDS011;69157;53.094;10.016;2024-02-21T05:34:28;11.23;;;5.05;;
54372;SDS011;69157;53.094;10.016;2024-02-21T05:36:54;14.20;;;4.90;;
54372;SDS011;69157;53.094;10.016;2024-02-21T05:39:22;14.00;;;6.13;;
54372;SDS011;69157;53.094;10.016;2024-02-21T05:41:49;11.13;;;4.53;;
54372;SDS011;69157;53.094;10.016;2024-02-21T05:44:17;12.55;;;5.28;;
54372;SDS011;69157;53.094;10.016;2024-02-21T05:46:43;12.00;;;5.93;;
54372;SDS011;69157;53.094;10.016;2024-02-21T05:49:09;15.60;;;5.32;;
54372;SDS011;69157;53.094;10.016;2024-02-21T05:51:36;16.95;;;5.50;;
54372;SDS011;69157;53.094;10.016;2024-02-21T05:54:02;16.42;;;5.65;;
54372;SDS011;69157;53.094;10.016;2024-02-21T05:56:28;12.65;;;4.80;;
54372;SDS011;69157;53.094;10.016;2024-02-21T05:58:54;9.00;;;5.03;;
54372;SDS011;69157;53.094;10.016;2024-02-21T06:01:20;15.77;;;5.47;;
54372;SDS011;69157;53.094;10.016;2024-02-21T06:03:46;13.15;;;5.05;;
54372;SDS011;69157;53.094;10.016;2024-02-21T06:06:12;14.10;;;6.20;;
54372;SDS011;69157;53.094;10.016;2024-02-21T06:08:40;15.02;;;5.03;;
54372;SDS011;69157;53.094;10.016;2024-02-21T06:11:07;10.15;;;4.78;;
54372;SDS011;69157;53.094;10.016;2024-02-21T06:13:33;11.70;;;4.90;;
54372;SDS011;69157;53.094;10.016;2024-02-21T06:15:59;10.82;;;5.35;;
54372;SDS011;69157;53.094;10.016;2024-02-21T06:18:25;8.85;;;4.05;;
54372;SDS011;69157;53.094;10.016;2024-02-21T06:20:52;10.80;;;5.03;;
54372;SDS011;69157;53.094;10.016;2024-02-21T06:23:20;14.50;;;4.63;;
54372;SDS011;69157;53.094;10.016;2024-02-21T06:25:46;13.13;;;5.22;;
54372;SDS011;69157;53.094;10.016;2024-02-21T06:28:12;6.70;;;4.25;;
54372;SDS011;69157;53.094;10.016;2024-02-21T06:30:39;11.77;;;4.78;;
54372;SDS011;69157;53.094;10.016;2024-02-21T06:33:05;8.35;;;3.80;;
54372;SDS011;69157;53.094;10.016;2024-02-21T06:35:32;11.30;;;4.25;;
54372;SDS011;69157;53.094;10.016;2024-02-21T06:38:00;11.55;;;5.55;;
54372;SDS011;69157;53.094;10.016;2024-02-21T06:40:26;10.60;;;4.10;;
54372;SDS011;69157;53.094;10.016;2024-02-21T06:42:52;12.93;;;4.70;;
54372;SDS011;69157;53.094;10.016;2024-02-21T06:45:18;9.90;;;4.95;;
54372;SDS011;69157;53.094;10.016;2024-02-21T06:47:43;11.63;;;4.85;;
54372;SDS011;69157;53.094;10.016;2024-02-21T06:50:09;15.23;;;4.35;;
54372;SDS011;69157;53.094;10.016;2024-02-21T06:52:36;7.78;;;4.43;;
54372;SDS011;69157;53.094;10.016;2024-02-21T06:55:03;9.10;;;4.88;;
54372;SDS011;69157;53.094;10.016;2024-02-21T06:57:29;11.40;;;4.07;;
54372;SDS011;69157;53.094;10.016;2024-02-21T06:59:55;10.15;;;4.40;;
54372;SDS011;69157;53.094;10.016;2024-02-21T07:02:21;8.73;;;4.18;;
54372;SDS011;69157;53.094;10.016;2024-02-21T07:04:47;7.93;;;3.65;;
54372;SDS011;69157;53.094;10.016;2024-02-21T07:07:14;10.48;;;4.43;;
54372;SDS011;69157;53.094;10.016;2024-02-21T07:09:40;9.25;;;4.22;;
54372;SDS011;69157;53.094;10.016;2024-02-21T07:12:06;10.63;;;4.10;;
54372;SDS011;69157;53.094;10.016;2024-02-21T07:14:35;13.50;;;4.70;;
54372;SDS011;69157;53.094;10.016;2024-02-21T07:17:02;9.68;;;3.97;;
54372;SDS011;69157;53.094;10.016;2024-02-21T07:19:30;7.93;;;4.35;;
54372;SDS011;69157;53.094;10.016;2024-02-21T07:21:56;5.85;;;3.38;;
54372;SDS011;69157;53.094;10.016;2024-02-21T07:24:22;8.75;;;4.38;;
54372;SDS011;69157;53.094;10.016;2024-02-21T07:26:51;6.63;;;3.58;;
54372;SDS011;69157;53.094;10.016;2024-02-21T07:29:16;12.48;;;4.55;;
54372;SDS011;69157;53.094;10.016;2024-02-21T07:31:43;10.13;;;4.97;;
54372;SDS011;69157;53.094;10.016;2024-02-21T07:34:09;9.27;;;4.88;;
54372;SDS011;69157;53.094;10.016;2024-02-21T07:36:35;8.25;;;4.05;;
54372;SDS011;69157;53.094;10.016;2024-02-21T07:39:07;10.50;;;4.80;;
54372;SDS011;69157;53.094;10.016;2024-02-21T07:41:33;10.65;;;4.85;;
54372;SDS011;69157;53.094;10.016;2024-02-21T07:44:00;10.90;;;5.05;;
54372;SDS011;69157;53.094;10.016;2024-02-21T07:46:28;11.65;;;4.43;;
54372;SDS011;69157;53.094;10.016;2024-02-21T07:48:54;11.55;;;4.60;;
54372;SDS011;69157;53.094;10.016;2024-02-21T07:51:20;11.60;;;4.53;;
54372;SDS011;69157;53.094;10.016;2024-02-21T07:53:46;10.18;;;4.50;;
54372;SDS011;69157;53.094;10.016;2024-02-21T07:56:13;6.45;;;3.35;;
54372;SDS011;69157;53.094;10.016;2024-02-21T07:58:41;8.55;;;4.25;;
54372;SDS011;69157;53.094;10.016;2024-02-21T08:01:07;8.20;;;4.38;;
54372;SDS011;69157;53.094;10.016;2024-02-21T08:03:33;8.23;;;3.88;;
54372;SDS011;69157;53.094;10.016;2024-02-21T08:06:00;12.32;;;4.22;;
54372;SDS011;69157;53.094;10.016;2024-02-21T08:08:26;12.23;;;4.70;;
54372;SDS011;69157;53.094;10.016;2024-02-21T08:10:53;6.32;;;2.90;;
54372;SDS011;69157;53.094;10.016;2024-02-21T08:13:20;11.02;;;3.80;;
54372;SDS011;69157;53.094;10.016;2024-02-21T08:15:47;9.32;;;4.60;;
54372;SDS011;69157;53.094;10.016;2024-02-21T08:18:14;10.00;;;4.55;;
54372;SDS011;69157;53.094;10.016;2024-02-21T08:20:40;12.68;;;4.47;;
54372;SDS011;69157;53.094;10.016;2024-02-21T08:23:07;7.43;;;4.00;;
54372;SDS011;69157;53.094;10.016;2024-02-21T08:25:33;10.93;;;4.13;;
54372;SDS011;69157;53.094;10.016;2024-02-21T08:27:59;7.13;;;3.85;;
54372;SDS011;69157;53.094;10.016;2024-02-21T08:30:25;7.43;;;3.40;;
54372;SDS011;69157;53.094;10.016;2024-02-21T08:32:51;6.63;;;3.38;;
54372;SDS011;69157;53.094;10.016;2024-02-21T08:35:21;7.50;;;3.23;;
54372;SDS011;69157;53.094;10.016;2024-02-21T08:37:47;9.88;;;4.72;;
54372;SDS011;69157;53.094;10.016;2024-02-21T08:40:13;8.25;;;3.10;;
54372;SDS011;69157;53.094;10.016;2024-02-21T08:42:42;9.38;;;4.22;;
54372;SDS011;69157;53.094;10.016;2024-02-21T08:45:09;12.73;;;4.30;;
54372;SDS011;69157;53.094;10.016;2024-02-21T08:47:35;11.30;;;4.28;;
54372;SDS011;69157;53.094;10.016;2024-02-21T08:50:02;9.50;;;4.75;;
54372;SDS011;69157;53.094;10.016;2024-02-21T08:52:28;10.00;;;3.97;;
54372;SDS011;69157;53.094;10.016;2024-02-21T08:54:54;7.70;;;3.58;;
54372;SDS011;69157;53.094;10.016;2024-02-21T08:57:22;11.48;;;4.50;;
54372;SDS011;69157;53.094;10.016;2024-02-21T08:59:49;11.30;;;4.85;;
54372;SDS011;69157;53.094;10.016;2024-02-21T09:02:15;8.48;;;4.45;;
54372;SDS011;69157;53.094;10.016;2024-02-21T09:04:41;11.40;;;4.05;;
54372;SDS011;69157;53.094;10.016;2024-02-21T09:07:09;7.75;;;4.60;;
54372;SDS011;69157;53.094;10.016;2024-02-21T09:09:36;9.68;;;3.92;;
54372;SDS011;69157;53.094;10.016;2024-02-21T09:12:03;11.05;;;4.85;;
54372;SDS011;69157;53.094;10.016;2024-02-21T09:14:32;10.30;;;4.28;;
54372;SDS011;69157;53.094;10.016;2024-02-21T09:16:57;9.52;;;4.65;;
54372;SDS011;69157;53.094;10.016;2024-02-21T09:19:24;10.73;;;4.20;;
54372;SDS011;69157;53.094;10.016;2024-02-21T09:21:50;9.90;;;4.85;;
54372;SDS011;69157;53.094;10.016;2024-02-21T09:24:17;11.10;;;5.22;;
54372;SDS011;69157;53.094;10.016;2024-02-21T09:26:43;11.90;;;5.15;;
54372;SDS011;69157;53.094;10.016;2024-02-21T09:29:11;17.05;;;6.18;;
54372;SDS011;69157;53.094;10.016;2024-02-21T09:31:38;12.77;;;4.93;;
54372;SDS011;69157;53.094;10.016;2024-02-21T09:34:04;13.85;;;5.82;;
54372;SDS011;69157;53.094;10.016;2024-02-21T09:36:30;12.55;;;6.15;;
54372;SDS011;69157;53.094;10.016;2024-02-21T09:38:56;12.65;;;5.75;;
54372;SDS011;69157;53.094;10.016;2024-02-21T09:41:26;16.35;;;5.82;;
54372;SDS011;69157;53.094;10.016;2024-02-21T09:43:55;14.48;;;6.00;;
54372;SDS011;69157;53.094;10.016;2024-02-21T09:46:24;15.95;;;6.00;;
54372;SDS011;69157;53.094;10.016;2024-02-21T09:51:38;10.10;;;5.38;;
54372;SDS011;69157;53.094;10.016;2024-02-21T09:54:06;12.05;;;5.85;;
54372;SDS011;69157;53.094;10.016;2024-02-21T09:56:33;11.45;;;5.80;;
54372;SDS011;69157;53.094;10.016;2024-02-21T09:58:59;11.18;;;5.68;;
54372;SDS011;69157;53.094;10.016;2024-02-21T10:01:25;15.43;;;6.20;;
54372;SDS011;69157;53.094;10.016;2024-02-21T10:03:51;14.32;;;5.63;;
54372;SDS011;69157;53.094;10.016;2024-02-21T10:06:17;15.25;;;5.57;;
54372;SDS011;69157;53.094;10.016;2024-02-21T10:08:51;11.75;;;4.65;;
54372;SDS011;69157;53.094;10.016;2024-02-21T10:11:23;12.63;;;5.30;;
54372;SDS011;69157;53.094;10.016;2024-02-21T10:13:49;13.45;;;4.70;;
54372;SDS011;69157;53.094;10.016;2024-02-21T10:16:17;14.23;;;5.20;;
54372;SDS011;69157;53.094;10.016;2024-02-21T10:18:43;13.75;;;4.88;;
54372;SDS011;69157;53.094;10.016;2024-02-21T10:21:10;10.48;;;4.70;;
54372;SDS011;69157;53.094;10.016;2024-02-21T10:23:41;10.20;;;4.60;;
54372;SDS011;69157;53.094;10.016;2024-02-21T10:26:07;11.50;;;4.93;;
54372;SDS011;69157;53.094;10.016;2024-02-21T10:28:33;11.95;;;4.55;;
54372;SDS011;69157;53.094;10.016;2024-02-21T10:30:59;14.88;;;5.03;;
54372;SDS011;69157;53.094;10.016;2024-02-21T10:33:25;9.93;;;5.20;;
54372;SDS011;69157;53.094;10.016;2024-02-21T10:35:53;12.32;;;5.57;;
54372;SDS011;69157;53.094;10.016;2024-02-21T10:38:19;11.30;;;5.40;;
54372;SDS011;69157;53.094;10.016;2024-02-21T10:40:46;13.60;;;5.60;;
54372;SDS011;69157;53.094;10.016;2024-02-21T10:43:14;9.93;;;4.55;;
54372;SDS011;69157;53.094;10.016;2024-02-21T10:45:43;12.00;;;5.50;;
54372;SDS011;69157;53.094;10.016;2024-02-21T10:48:13;11.52;;;4.75;;
54372;SDS011;69157;53.094;10.016;2024-02-21T10:50:47;12.73;;;5.70;;
54372;SDS011;69157;53.094;10.016;2024-02-21T10:56:34;18.00;;;5.00;;
54372;SDS011;69157;53.094;10.016;2024-02-21T10:58:41;13.75;;;5.00;;
54372;SDS011;69157;53.094;10.016;2024-02-21T11:01:08;12.80;;;5.88;;
54372;SDS011;69157;53.094;10.016;2024-02-21T11:03:34;14.77;;;5.57;;
54372;SDS011;69157;53.094;10.016;2024-02-21T11:06:01;17.52;;;5.65;;
54372;SDS011;69157;53.094;10.016;2024-02-21T11:08:27;11.63;;;5.38;;
54372;SDS011;69157;53.094;10.016;2024-02-21T11:10:58;14.35;;;6.15;;
54372;SDS011;69157;53.094;10.016;2024-02-21T11:13:32;13.07;;;4.82;;
54372;SDS011;69157;53.094;10.016;2024-02-21T11:16:09;13.32;;;6.25;;
54372;SDS011;69157;53.094;10.016;2024-02-21T11:18:39;9.85;;;4.57;;
54372;SDS011;69157;53.094;10.016;2024-02-21T11:21:06;19.50;;;6.13;;
54372;SDS011;69157;53.094;10.016;2024-02-21T11:23:34;11.27;;;5.20;;
54372;SDS011;69157;53.094;10.016;2024-02-21T11:26:06;10.82;;;5.38;;
54372;SDS011;69157;53.094;10.016;2024-02-21T11:28:32;14.65;;;5.78;;
54372;SDS011;69157;53.094;10.016;2024-02-21T11:31:08;17.77;;;5.75;;
54372;SDS011;69157;53.094;10.016;2024-02-21T11:33:35;10.25;;;6.03;;
54372;SDS011;69157;53.094;10.016;2024-02-21T11:36:02;13.80;;;6.25;;
54372;SDS011;69157;53.094;10.016;2024-02-21T11:38:29;17.08;;;5.97;;
54372;SDS011;69157;53.094;10.016;2024-02-21T11:40:57;13.45;;;6.22;;
54372;SDS011;69157;53.094;10.016;2024-02-21T11:43:23;12.50;;;5.63;;
54372;SDS011;69157;53.094;10.016;2024-02-21T11:45:50;12.55;;;5.63;;
54372;SDS011;69157;53.094;10.016;2024-02-21T11:48:23;17.25;;;5.75;;
54372;SDS011;69157;53.094;10.016;2024-02-21T11:50:53;13.77;;;5.78;;
54372;SDS011;69157;53.094;10.016;2024-02-21T11:53:20;13.85;;;6.18;;
54372;SDS011;69157;53.094;10.016;2024-02-21T11:55:46;12.02;;;5.50;;
54372;SDS011;69157;53.094;10.016;2024-02-21T11:58:12;17.83;;;6.35;;
54372;SDS011;69157;53.094;10.016;2024-02-21T12:00:40;10.98;;;4.95;;
54372;SDS011;69157;53.094;10.016;2024-02-21T12:03:06;13.90;;;5.50;;
54372;SDS011;69157;53.094;10.016;2024-02-21T12:05:32;11.80;;;5.35;;
54372;SDS011;69157;53.094;10.016;2024-02-21T12:07:59;11.45;;;4.88;;
54372;SDS011;69157;53.094;10.016;2024-02-21T12:10:28;8.77;;;4.65;;
54372;SDS011;69157;53.094;10.016;2024-02-21T12:12:54;9.13;;;4.32;;
54372;SDS011;69157;53.094;10.016;2024-02-21T12:15:31;10.38;;;4.30;;
54372;SDS011;69157;53.094;10.016;2024-02-21T12:17:57;6.82;;;3.50;;
54372;SDS011;69157;53.094;10.016;2024-02-21T12:20:26;11.00;;;4.28;;
54372;SDS011;69157;53.094;10.016;2024-02-21T12:22:52;9.13;;;4.75;;
54372;SDS011;69157;53.094;10.016;2024-02-21T12:25:19;9.88;;;4.03;;
54372;SDS011;69157;53.094;10.016;2024-02-21T12:27:51;10.52;;;3.60;;
54372;SDS011;69157;53.094;10.016;2024-02-21T12:30:17;11.80;;;5.10;;
54372;SDS011;69157;53.094;10.016;2024-02-21T12:32:44;10.10;;;3.63;;
54372;SDS011;69157;53.094;10.016;2024-02-21T12:35:10;8.38;;;3.42;;
54372;SDS011;69157;53.094;10.016;2024-02-21T12:37:36;4.80;;;3.03;;
54372;SDS011;69157;53.094;10.016;2024-02-21T12:40:03;7.38;;;3.25;;
54372;SDS011;69157;53.094;10.016;2024-02-21T12:42:32;9.13;;;3.72;;
54372;SDS011;69157;53.094;10.016;2024-02-21T12:44:59;6.00;;;3.75;;
54372;SDS011;69157;53.094;10.016;2024-02-21T12:47:25;5.78;;;3.10;;
54372;SDS011;69157;53.094;10.016;2024-02-21T12:49:53;8.80;;;3.80;;
54372;SDS011;69157;53.094;10.016;2024-02-21T12:52:20;7.43;;;3.50;;
54372;SDS011;69157;53.094;10.016;2024-02-21T12:54:46;7.50;;;4.00;;
54372;SDS011;69157;53.094;10.016;2024-02-21T12:57:13;8.00;;;3.08;;
54372;SDS011;69157;53.094;10.016;2024-02-21T12:59:39;8.80;;;3.42;;
54372;SDS011;69157;53.094;10.016;2024-02-21T13:02:05;6.50;;;2.88;;
54372;SDS011;69157;53.094;10.016;2024-02-21T13:04:33;9.52;;;3.35;;
54372;SDS011;69157;53.094;10.016;2024-02-21T13:07:00;12.98;;;3.72;;
54372;SDS011;69157;53.094;10.016;2024-02-21T13:09:27;5.63;;;2.60;;
54372;SDS011;69157;53.094;10.016;2024-02-21T13:11:53;5.07;;;2.53;;
54372;SDS011;69157;53.094;10.016;2024-02-21T13:14:20;9.88;;;3.15;;
54372;SDS011;69157;53.094;10.016;2024-02-21T13:16:47;9.25;;;2.75;;
54372;SDS011;69157;53.094;10.016;2024-02-21T13:19:13;7.15;;;3.08;;
54372;SDS011;69157;53.094;10.016;2024-02-21T13:21:42;4.20;;;2.40;;
54372;SDS011;69157;53.094;10.016;2024-02-21T13:24:08;4.65;;;2.78;;
54372;SDS011;69157;53.094;10.016;2024-02-21T13:26:34;5.07;;;2.75;;
54372;SDS011;69157;53.094;10.016;2024-02-21T13:29:00;4.55;;;2.13;;
54372;SDS011;69157;53.094;10.016;2024-02-21T13:31:26;4.97;;;2.42;;
54372;SDS011;69157;53.094;10.016;2024-02-21T13:33:53;4.10;;;2.25;;
54372;SDS011;69157;53.094;10.016;2024-02-21T13:36:19;4.28;;;2.42;;
54372;SDS011;69157;53.094;10.016;2024-02-21T13:38:45;4.30;;;2.38;;
54372;SDS011;69157;53.094;10.016;2024-02-21T13:41:12;4.88;;;2.00;;
54372;SDS011;69157;53.094;10.016;2024-02-21T13:43:38;5.45;;;2.58;;
54372;SDS011;69157;53.094;10.016;2024-02-21T13:46:04;5.07;;;2.22;;
54372;SDS011;69157;53.094;10.016;2024-02-21T13:48:34;3.35;;;1.80;;
54372;SDS011;69157;53.094;10.016;2024-02-21T13:51:00;3.08;;;1.92;;
54372;SDS011;69157;53.094;10.016;2024-02-21T13:53:28;5.15;;;2.30;;
54372;SDS011;69157;53.094;10.016;2024-02-21T13:55:54;2.70;;;1.60;;
54372;SDS011;69157;53.094;10.016;2024-02-21T13:58:20;2.47;;;1.73;;
54372;SDS011;69157;53.094;10.016;2024-02-21T14:00:47;2.60;;;1.80;;
54372;SDS011;69157;53.094;10.016;2024-02-21T14:03:13;2.88;;;1.90;;
54372;SDS011;69157;53.094;10.016;2024-02-21T14:05:40;2.40;;;1.90;;
54372;SDS011;69157;53.094;10.016;2024-02-21T14:08:07;4.45;;;2.20;;
54372;SDS011;69157;53.094;10.016;2024-02-21T14:10:35;2.42;;;1.67;;
54372;SDS011;69157;53.094;10.016;2024-02-21T14:13:02;2.05;;;1.52;;
54372;SDS011;69157;53.094;10.016;2024-02-21T14:15:28;4.15;;;2.63;;
54372;SDS011;69157;53.094;10.016;2024-02-21T14:17:55;4.00;;;1.92;;
54372;SDS011;69157;53.094;10.016;2024-02-21T14:20:23;3.63;;;2.22;;
54372;SDS011;69157;53.094;10.016;2024-02-21T14:22:50;3.08;;;1.88;;
54372;SDS011;69157;53.094;10.016;2024-02-21T14:25:16;4.72;;;1.90;;
54372;SDS011;69157;53.094;10.016;2024-02-21T14:27:43;8.32;;;2.20;;
54372;SDS011;69157;53.094;10.016;2024-02-21T14:30:10;2.97;;;1.85;;